Time;durP1;ratioP1;P1;durP2;ratioP2;P2;SDS_P1;SDS_P2;PMS_P1;PMS_P2;Temp;Humidity;BMP_temperature;BMP_pressure;BME280_temperature;BME280_humidity;BME280_pressure;Samples;Min_cycle;Max_cycle;Signal;HPM_P1;HPM_P2
2022/07/09 00:01:26;;;;;;;4.87;1.93;;;21.40;99.90;;;;;;5028612;28;20451;-89
2022/07/09 00:03:54;;;;;;;3.30;1.60;;;21.40;99.90;;;;;;5031410;28;20462;-90
2022/07/09 00:06:21;;;;;;;1.73;1.57;;;21.40;99.90;;;;;;5028945;28;20450;-90
2022/07/09 00:08:49;;;;;;;2.53;1.87;;;21.30;99.90;;;;;;5029147;28;20454;-88
2022/07/09 00:11:16;;;;;;;2.13;1.90;;;21.30;99.90;;;;;;5023094;28;20469;-89
2022/07/09 00:13:43;;;;;;;2.23;1.80;;;21.30;99.90;;;;;;5032314;28;20447;-90
2022/07/09 00:16:09;;;;;;;2.50;1.53;;;21.30;99.90;;;;;;5025680;28;20857;-89
2022/07/09 00:18:36;;;;;;;5.30;1.90;;;21.30;99.90;;;;;;5025269;28;20458;-89
2022/07/09 00:21:03;;;;;;;5.10;1.53;;;21.30;99.90;;;;;;5025207;28;20849;-90
2022/07/09 00:23:30;;;;;;;2.30;1.40;;;21.30;99.90;;;;;;5023644;28;20877;-88
2022/07/09 00:25:58;;;;;;;3.00;2.07;;;21.20;99.90;;;;;;5019619;28;20470;-90
2022/07/09 00:28:25;;;;;;;2.23;2.03;;;21.20;99.90;;;;;;5028184;28;20450;-90
2022/07/09 00:30:52;;;;;;;2.47;1.80;;;21.20;99.90;;;;;;5029058;28;20462;-90
2022/07/09 00:33:19;;;;;;;2.60;1.90;;;21.20;99.90;;;;;;5029273;28;20455;-90
2022/07/09 00:35:45;;;;;;;2.63;1.77;;;21.10;99.90;;;;;;5018678;28;20505;-91
2022/07/09 00:38:12;;;;;;;1.70;1.57;;;21.20;99.90;;;;;;5021575;28;20463;-90
2022/07/09 00:40:39;;;;;;;3.20;1.73;;;21.10;99.90;;;;;;5031088;28;20457;-90
2022/07/09 00:43:18;;;;;;;3.90;1.87;;;21.10;99.90;;;;;;5024362;28;20474;-89
2022/07/09 00:45:45;;;;;;;1.90;1.30;;;21.10;99.90;;;;;;5025796;28;20459;-90
2022/07/09 00:48:12;;;;;;;2.10;1.83;;;21.10;99.90;;;;;;5021280;28;20451;-90
2022/07/09 00:50:40;;;;;;;2.37;1.50;;;21.10;99.90;;;;;;5025231;28;20455;-91
2022/07/09 00:53:08;;;;;;;2.90;1.60;;;21.10;99.90;;;;;;5019586;28;20452;-89
2022/07/09 00:55:35;;;;;;;1.60;1.43;;;21.10;99.90;;;;;;5018236;28;20533;-90
2022/07/09 00:58:02;;;;;;;2.10;2.00;;;21.00;99.90;;;;;;5021033;28;21034;-91
2022/07/09 01:00:31;;;;;;;2.20;2.00;;;21.00;99.90;;;;;;5030073;28;20462;-91
2022/07/09 01:02:58;;;;;;;3.00;1.63;;;21.00;99.90;;;;;;5030619;28;20485;-90
2022/07/09 01:05:25;;;;;;;3.40;1.80;;;21.00;99.90;;;;;;5027521;28;20829;-90
2022/07/09 01:07:52;;;;;;;1.63;1.53;;;21.00;99.90;;;;;;5025866;28;20463;-90
2022/07/09 01:10:19;;;;;;;2.80;1.47;;;21.00;99.90;;;;;;5020665;28;20474;-90
2022/07/09 01:12:46;;;;;;;2.73;1.30;;;21.00;99.90;;;;;;5024563;28;20826;-89
2022/07/09 01:15:13;;;;;;;1.60;1.50;;;20.90;99.90;;;;;;5018247;28;20481;-89
2022/07/09 01:17:41;;;;;;;2.70;2.15;;;21.00;99.90;;;;;;5026622;28;20993;-89
2022/07/09 01:20:09;;;;;;;2.00;1.80;;;20.90;99.90;;;;;;5017156;28;20575;-89
2022/07/09 01:22:38;;;;;;;2.10;1.43;;;20.90;99.90;;;;;;5028694;28;20199;-90
2022/07/09 01:25:09;;;;;;;1.87;1.57;;;20.90;99.90;;;;;;5018831;28;20458;-90
2022/07/09 01:27:36;;;;;;;2.90;2.00;;;20.90;99.90;;;;;;5032426;28;20944;-89
2022/07/09 01:30:04;;;;;;;2.13;1.70;;;20.90;99.90;;;;;;5018942;28;20474;-90
2022/07/09 01:32:31;;;;;;;2.10;1.50;;;20.90;99.90;;;;;;5016546;28;20451;-89
2022/07/09 01:34:57;;;;;;;3.00;1.90;;;20.80;99.90;;;;;;5024890;28;20461;-89
2022/07/09 01:37:24;;;;;;;4.40;2.20;;;20.80;99.90;;;;;;5026098;28;20848;-89
2022/07/09 01:39:52;;;;;;;2.33;1.40;;;20.80;99.90;;;;;;5022365;28;20545;-89
2022/07/09 01:42:20;;;;;;;4.13;1.43;;;20.80;99.90;;;;;;5017925;28;20536;-89
2022/07/09 01:44:48;;;;;;;1.87;1.40;;;20.80;99.90;;;;;;5031460;28;20984;-89
2022/07/09 01:47:15;;;;;;;1.65;1.55;;;20.80;99.90;;;;;;5031561;28;20454;-89
2022/07/09 01:49:42;;;;;;;1.77;1.55;;;20.70;99.90;;;;;;5024530;28;20515;-91
2022/07/09 01:52:09;;;;;;;2.20;1.98;;;20.70;99.90;;;;;;5028603;28;20226;-90
2022/07/09 01:54:36;;;;;;;3.08;1.58;;;20.70;99.90;;;;;;5033152;28;20204;-89
2022/07/09 01:57:04;;;;;;;4.93;1.60;;;20.70;99.90;;;;;;5030230;28;20219;-89
2022/07/09 01:59:31;;;;;;;4.90;1.90;;;20.70;99.90;;;;;;5019386;28;20553;-90
2022/07/09 02:01:58;;;;;;;2.33;1.83;;;20.70;99.90;;;;;;5027668;28;20231;-89
2022/07/09 02:04:25;;;;;;;1.97;1.77;;;20.70;99.90;;;;;;5030534;28;20966;-89
2022/07/09 02:06:51;;;;;;;4.03;2.20;;;20.60;99.90;;;;;;5026148;28;20458;-89
2022/07/09 02:09:18;;;;;;;2.30;2.10;;;20.60;99.90;;;;;;5025307;28;20199;-89
2022/07/09 02:11:46;;;;;;;2.77;1.73;;;20.60;99.90;;;;;;5034887;28;20893;-89
2022/07/09 02:14:14;;;;;;;4.30;1.48;;;20.60;99.90;;;;;;5030146;28;20462;-89
2022/07/09 02:16:41;;;;;;;4.82;1.60;;;20.60;99.90;;;;;;5027399;28;20227;-89
2022/07/09 02:19:08;;;;;;;2.07;1.60;;;20.60;99.90;;;;;;5028041;28;20199;-88
2022/07/09 02:21:35;;;;;;;4.93;4.60;;;20.60;99.90;;;;;;5028890;28;20459;-88
2022/07/09 02:24:02;;;;;;;1.77;1.30;;;20.50;99.90;;;;;;5033586;28;20212;-88
2022/07/09 02:26:29;;;;;;;1.65;1.40;;;20.60;99.90;;;;;;5038499;28;20200;-88
2022/07/09 02:28:57;;;;;;;1.90;1.70;;;20.50;99.90;;;;;;5025974;28;20594;-89
2022/07/09 02:31:27;;;;;;;1.50;1.40;;;20.50;99.90;;;;;;5021589;28;20284;-89
2022/07/09 02:33:54;;;;;;;1.80;1.70;;;20.50;99.90;;;;;;5020625;28;20223;-87
2022/07/09 02:36:21;;;;;;;1.30;1.20;;;20.50;99.90;;;;;;5029348;28;20663;-88
2022/07/09 02:38:48;;;;;;;1.42;1.33;;;20.50;99.90;;;;;;5031227;28;21322;-88
2022/07/09 02:41:14;;;;;;;1.80;1.48;;;20.50;99.90;;;;;;5028320;28;20196;-88
2022/07/09 02:43:42;;;;;;;2.70;2.43;;;20.50;99.90;;;;;;5030162;28;20201;-88
2022/07/09 02:46:09;;;;;;;2.30;1.60;;;20.50;99.90;;;;;;5030870;28;20881;-88
2022/07/09 02:48:37;;;;;;;1.90;1.50;;;20.50;99.90;;;;;;5031592;28;20563;-87
2022/07/09 02:51:04;;;;;;;5.93;5.53;;;20.50;99.90;;;;;;5027363;28;20203;-88
2022/07/09 02:53:31;;;;;;;2.53;1.95;;;20.50;99.90;;;;;;5027103;28;20457;-85
2022/07/09 02:55:58;;;;;;;2.35;1.75;;;20.50;99.90;;;;;;5027381;28;20192;-84
2022/07/09 02:58:24;;;;;;;2.88;1.65;;;20.40;99.90;;;;;;5023213;28;20625;-84
2022/07/09 03:00:51;;;;;;;5.07;1.85;;;20.40;99.90;;;;;;5029229;28;20198;-86
2022/07/09 03:03:18;;;;;;;4.95;2.13;;;20.40;99.90;;;;;;5024520;28;20524;-84
2022/07/09 03:05:46;;;;;;;1.60;1.50;;;20.40;99.90;;;;;;5024966;28;20559;-85
2022/07/09 03:08:13;;;;;;;1.65;1.55;;;20.40;99.90;;;;;;5030061;28;20203;-84
2022/07/09 03:10:40;;;;;;;1.55;1.45;;;20.40;99.90;;;;;;5025150;28;20199;-86
2022/07/09 03:13:06;;;;;;;4.53;2.88;;;20.40;99.90;;;;;;5016936;28;20206;-85
2022/07/09 03:15:33;;;;;;;2.13;1.42;;;20.40;99.90;;;;;;5017580;28;20580;-86
2022/07/09 03:18:00;;;;;;;14.30;13.50;;;20.40;99.90;;;;;;5031820;28;20214;-84
2022/07/09 03:20:27;;;;;;;3.75;2.22;;;20.40;99.90;;;;;;5025082;28;20830;-84
2022/07/09 03:22:55;;;;;;;4.07;2.88;;;20.30;99.90;;;;;;5024924;28;20199;-84
2022/07/09 03:25:22;;;;;;;3.67;2.33;;;20.40;99.90;;;;;;5023614;28;20582;-85
2022/07/09 03:27:49;;;;;;;2.35;2.13;;;20.30;99.90;;;;;;5025119;28;20718;-85
2022/07/09 03:30:16;;;;;;;5.13;2.00;;;20.40;99.90;;;;;;5022057;28;20212;-85
2022/07/09 03:32:43;;;;;;;4.68;3.30;;;20.40;99.90;;;;;;5027722;28;20203;-85
2022/07/09 03:35:10;;;;;;;5.60;3.00;;;20.30;99.90;;;;;;5018021;28;20202;-86
2022/07/09 03:37:36;;;;;;;4.03;2.53;;;20.30;99.90;;;;;;5025543;28;20216;-85
2022/07/09 03:40:06;;;;;;;4.30;2.17;;;20.30;99.90;;;;;;5029913;28;20249;-85
2022/07/09 03:42:33;;;;;;;2.97;1.80;;;20.30;99.90;;;;;;5023105;28;20195;-85
2022/07/09 03:44:59;;;;;;;3.00;2.30;;;20.30;99.90;;;;;;5021706;28;20545;-85
2022/07/09 03:47:26;;;;;;;2.83;2.47;;;20.30;99.90;;;;;;5026347;28;20677;-87
2022/07/09 03:49:53;;;;;;;4.78;2.60;;;20.30;99.90;;;;;;5025020;28;20196;-85
2022/07/09 03:52:19;;;;;;;2.92;2.58;;;20.30;99.90;;;;;;5028792;28;20563;-85
2022/07/09 03:54:46;;;;;;;2.75;2.42;;;20.30;99.90;;;;;;5013680;28;20206;-85
2022/07/09 03:57:14;;;;;;;3.10;2.60;;;20.30;99.90;;;;;;5024154;28;20221;-85
2022/07/09 03:59:41;;;;;;;2.42;2.22;;;20.30;99.90;;;;;;5028727;28;20203;-85
2022/07/09 04:02:08;;;;;;;2.30;2.10;;;20.30;99.90;;;;;;5023757;28;20711;-85
2022/07/09 04:04:34;;;;;;;2.95;2.70;;;20.30;99.90;;;;;;5021847;28;20206;-84
2022/07/09 04:07:01;;;;;;;2.55;2.10;;;20.30;99.90;;;;;;5025384;28;20195;-84
2022/07/09 04:09:28;;;;;;;2.97;2.60;;;20.30;99.90;;;;;;5026757;28;20222;-84
2022/07/09 04:11:55;;;;;;;3.88;2.40;;;20.20;99.90;;;;;;5025360;28;20199;-85
2022/07/09 04:14:23;;;;;;;3.00;2.00;;;20.20;99.90;;;;;;5021599;28;20230;-84
2022/07/09 04:16:49;;;;;;;3.00;2.50;;;20.20;99.90;;;;;;5024878;28;20206;-85
2022/07/09 04:19:16;;;;;;;3.85;2.15;;;20.20;99.90;;;;;;5025265;28;20211;-85
2022/07/09 04:21:43;;;;;;;2.08;1.88;;;20.20;99.90;;;;;;5023961;28;20196;-84
2022/07/09 04:24:10;;;;;;;2.53;2.10;;;20.20;99.90;;;;;;5023984;28;20210;-85
2022/07/09 04:26:36;;;;;;;3.13;2.90;;;20.20;99.90;;;;;;5027874;28;20449;-84
2022/07/09 04:29:03;;;;;;;2.65;2.45;;;20.20;99.90;;;;;;5012831;28;20210;-84
2022/07/09 04:31:31;;;;;;;2.25;2.05;;;20.20;99.90;;;;;;5014892;28;20206;-83
2022/07/09 04:33:58;;;;;;;2.90;2.70;;;20.20;99.90;;;;;;5022112;28;20657;-83
2022/07/09 04:36:25;;;;;;;5.30;2.80;;;20.20;99.90;;;;;;5024528;28;20485;-83
2022/07/09 04:38:51;;;;;;;3.30;2.25;;;20.20;99.90;;;;;;5018081;28;20603;-83
2022/07/09 04:41:18;;;;;;;3.30;3.00;;;20.20;99.90;;;;;;5020822;28;20202;-83
2022/07/09 04:43:45;;;;;;;2.00;1.80;;;20.20;99.90;;;;;;5016879;28;20206;-83
2022/07/09 04:46:12;;;;;;;3.80;2.15;;;20.10;99.90;;;;;;5026491;28;20477;-83
2022/07/09 04:48:40;;;;;;;3.13;2.85;;;20.10;99.90;;;;;;5023328;28;20202;-84
2022/07/09 04:51:07;;;;;;;3.40;2.63;;;20.20;99.90;;;;;;5023379;28;20206;-83
2022/07/09 04:53:33;;;;;;;2.35;2.15;;;20.10;99.90;;;;;;5017616;28;20203;-83
2022/07/09 04:56:00;;;;;;;6.05;3.20;;;20.10;99.90;;;;;;5024436;28;20203;-83
2022/07/09 04:58:27;;;;;;;2.92;2.72;;;20.10;99.90;;;;;;5025571;28;20352;-84
2022/07/09 05:00:54;;;;;;;2.35;2.15;;;20.20;99.90;;;;;;5016683;28;20190;-87
2022/07/09 05:03:21;;;;;;;4.15;3.13;;;20.10;99.90;;;;;;5022345;28;20697;-83
2022/07/09 05:05:49;;;;;;;4.10;2.42;;;20.10;99.90;;;;;;5023704;28;20207;-83
2022/07/09 05:08:16;;;;;;;2.00;1.90;;;20.10;99.90;;;;;;5023471;28;20214;-83
2022/07/09 05:10:42;;;;;;;3.00;2.80;;;20.10;99.90;;;;;;5028417;28;20210;-83
2022/07/09 05:13:09;;;;;;;2.65;2.45;;;20.10;99.90;;;;;;5021740;28;20198;-82
2022/07/09 05:15:36;;;;;;;5.93;3.00;;;20.10;99.90;;;;;;5028869;28;20203;-84
2022/07/09 05:18:03;;;;;;;6.55;2.83;;;20.10;99.90;;;;;;5031538;28;21158;-84
2022/07/09 05:20:30;;;;;;;2.50;2.30;;;20.10;99.90;;;;;;5033513;28;20881;-83
2022/07/09 05:22:58;;;;;;;2.90;2.60;;;20.10;99.90;;;;;;5027730;28;20205;-84
2022/07/09 05:25:25;;;;;;;2.67;2.20;;;20.10;99.90;;;;;;5019453;28;20219;-84
2022/07/09 05:27:51;;;;;;;3.53;3.03;;;20.10;99.90;;;;;;5027577;28;20200;-84
2022/07/09 05:30:18;;;;;;;3.28;2.60;;;20.10;99.90;;;;;;5031622;28;20213;-85
2022/07/09 05:32:45;;;;;;;5.28;3.05;;;20.10;99.90;;;;;;5025341;28;20208;-84
2022/07/09 05:35:12;;;;;;;2.75;2.30;;;20.10;99.90;;;;;;5029563;28;20210;-84
2022/07/09 05:37:42;;;;;;;3.25;2.00;;;20.10;99.90;;;;;;5020944;28;20220;-85
2022/07/09 05:40:12;;;;;;;5.95;3.50;;;20.10;99.90;;;;;;5028486;28;20666;-85
2022/07/09 05:42:39;;;;;;;5.80;2.63;;;20.10;99.90;;;;;;5024317;28;20201;-84
2022/07/09 05:45:07;;;;;;;3.58;2.67;;;20.20;99.90;;;;;;5031635;28;20600;-84
2022/07/09 05:47:34;;;;;;;4.07;2.78;;;20.20;99.90;;;;;;5033050;28;20698;-83
2022/07/09 05:50:00;;;;;;;2.22;2.03;;;20.20;99.90;;;;;;5024751;28;20206;-85
2022/07/09 05:52:27;;;;;;;2.97;1.90;;;20.20;99.90;;;;;;5022164;28;20199;-84
2022/07/09 05:54:54;;;;;;;3.05;2.45;;;20.20;99.90;;;;;;5023471;28;20198;-83
2022/07/09 05:57:22;;;;;;;2.50;2.03;;;20.30;99.90;;;;;;5025248;28;20200;-84
2022/07/09 05:59:49;;;;;;;2.65;2.03;;;20.40;99.90;;;;;;5014018;28;20691;-84
2022/07/09 06:02:15;;;;;;;2.60;2.15;;;20.50;99.90;;;;;;5022196;28;20215;-83
2022/07/09 06:04:42;;;;;;;2.67;2.47;;;20.50;99.90;;;;;;5022216;28;20675;-85
2022/07/09 06:07:09;;;;;;;2.00;1.90;;;20.40;99.90;;;;;;5026817;28;20570;-84
2022/07/09 06:09:36;;;;;;;2.47;2.28;;;20.50;99.90;;;;;;5029001;28;20754;-83
2022/07/09 06:12:04;;;;;;;1.95;1.83;;;20.50;99.90;;;;;;5023718;28;20207;-83
2022/07/09 06:14:32;;;;;;;3.42;1.98;;;20.50;99.90;;;;;;5024950;28;20654;-82
2022/07/09 06:17:05;;;;;;;1.80;1.63;;;20.60;99.90;;;;;;5027229;28;20294;-82
2022/07/09 06:19:33;;;;;;;3.50;2.00;;;20.70;99.90;;;;;;5032071;28;20490;-83
2022/07/09 06:22:00;;;;;;;3.67;2.23;;;20.70;99.90;;;;;;5029519;28;20458;-82
2022/07/09 06:24:26;;;;;;;2.35;2.03;;;20.70;99.90;;;;;;5025320;28;20459;-83
2022/07/09 06:26:53;;;;;;;2.35;2.15;;;20.70;99.90;;;;;;5029506;28;20548;-83
2022/07/09 06:29:20;;;;;;;2.33;1.47;;;20.70;99.90;;;;;;5033457;28;20635;-83
2022/07/09 06:31:48;;;;;;;2.80;1.70;;;20.80;99.90;;;;;;5030495;28;20458;-83
2022/07/09 06:34:15;;;;;;;3.47;2.50;;;20.80;99.90;;;;;;5016293;28;20969;-83
2022/07/09 06:36:44;;;;;;;2.30;1.75;;;20.80;99.90;;;;;;5030749;28;20471;-84
2022/07/09 06:41:55;;;;;;;2.17;1.98;;;20.80;99.90;;;;;;5032998;28;20479;-83
2022/07/09 06:44:22;;;;;;;2.42;1.77;;;20.70;99.90;;;;;;5028596;28;20662;-83
2022/07/09 06:46:50;;;;;;;2.38;2.17;;;20.70;99.90;;;;;;5018632;28;20200;-83
2022/07/09 06:49:17;;;;;;;2.55;1.80;;;20.70;99.90;;;;;;5031178;28;20207;-83
2022/07/09 06:51:43;;;;;;;1.85;1.75;;;20.70;99.90;;;;;;5030852;28;20203;-83
2022/07/09 06:54:10;;;;;;;2.35;1.80;;;20.80;99.90;;;;;;5023181;28;20297;-83
2022/07/09 06:56:37;;;;;;;1.57;1.47;;;20.90;99.90;;;;;;5023010;28;20249;-83
2022/07/09 06:59:03;;;;;;;1.92;1.83;;;21.00;99.90;;;;;;5028473;28;20478;-83
2022/07/09 07:01:30;;;;;;;1.50;1.40;;;21.10;99.90;;;;;;5019240;28;20215;-83
2022/07/09 07:03:58;;;;;;;2.70;1.80;;;21.20;99.90;;;;;;5032139;28;20427;-82
2022/07/09 07:06:25;;;;;;;2.20;2.00;;;21.20;99.90;;;;;;5021471;28;20478;-83
2022/07/09 07:08:52;;;;;;;2.87;1.30;;;21.30;99.90;;;;;;5019333;28;20286;-83
2022/07/09 07:11:19;;;;;;;1.90;1.63;;;21.30;99.90;;;;;;5026299;28;20453;-83
2022/07/09 07:13:45;;;;;;;1.60;1.40;;;21.40;99.90;;;;;;5032446;28;20488;-83
2022/07/09 07:16:12;;;;;;;3.10;1.50;;;21.50;99.90;;;;;;5021796;28;20459;-83
2022/07/09 07:18:39;;;;;;;2.07;1.70;;;21.50;99.90;;;;;;5029329;28;20560;-83
2022/07/09 07:21:07;;;;;;;1.87;1.70;;;21.60;99.90;;;;;;5022700;28;20462;-83
2022/07/09 07:23:34;;;;;;;2.23;1.87;;;21.60;99.90;;;;;;5024701;28;21257;-83
2022/07/09 07:26:00;;;;;;;2.23;2.13;;;21.80;99.90;;;;;;5028969;28;20473;-83
2022/07/09 07:28:27;;;;;;;1.93;1.63;;;21.90;99.90;;;;;;5029958;28;20458;-83
2022/07/09 07:30:55;;;;;;;1.90;1.67;;;21.90;99.90;;;;;;5025351;28;20469;-83
2022/07/09 07:33:21;;;;;;;1.47;1.27;;;22.00;99.90;;;;;;5027408;28;20545;-83
2022/07/09 07:35:48;;;;;;;1.70;1.60;;;22.00;99.90;;;;;;5027207;28;20825;-83
2022/07/09 07:38:16;;;;;;;1.87;1.77;;;22.00;99.90;;;;;;5022753;28;20484;-83
2022/07/09 07:40:43;;;;;;;1.50;1.40;;;21.90;99.90;;;;;;5029512;28;20446;-83
2022/07/09 07:43:11;;;;;;;3.70;1.60;;;21.90;99.90;;;;;;5028783;28;20462;-83
2022/07/09 07:45:38;;;;;;;1.73;1.63;;;21.80;99.90;;;;;;5018773;28;20807;-83
2022/07/09 07:48:05;;;;;;;3.20;1.70;;;21.70;99.90;;;;;;5025579;28;20984;-84
2022/07/09 07:50:32;;;;;;;2.00;1.80;;;21.60;99.90;;;;;;5028938;28;20969;-83
2022/07/09 07:52:59;;;;;;;2.13;1.93;;;21.60;99.90;;;;;;5021528;28;20490;-83
2022/07/09 07:55:27;;;;;;;1.53;1.43;;;21.50;99.90;;;;;;5017409;28;20474;-83
2022/07/09 07:57:54;;;;;;;1.90;1.80;;;21.40;99.90;;;;;;5027907;28;20823;-83
2022/07/09 08:00:22;;;;;;;3.37;2.07;;;21.40;99.90;;;;;;5022326;28;20482;-83
2022/07/09 08:02:48;;;;;;;1.80;1.70;;;21.50;99.90;;;;;;5029106;28;20485;-83
2022/07/09 08:05:15;;;;;;;1.67;1.20;;;21.50;99.90;;;;;;5028648;28;20466;-83
2022/07/09 08:07:42;;;;;;;1.80;1.60;;;21.50;99.90;;;;;;5022505;28;20946;-83
2022/07/09 08:10:10;;;;;;;1.63;1.50;;;21.50;99.90;;;;;;5021202;28;20489;-83
2022/07/09 08:12:38;;;;;;;2.07;1.67;;;21.60;99.90;;;;;;5028232;28;20442;-84
2022/07/09 08:15:06;;;;;;;1.40;1.13;;;21.70;99.90;;;;;;5025593;28;20466;-84
2022/07/09 08:17:32;;;;;;;1.77;1.67;;;22.00;99.90;;;;;;5027784;28;20462;-84
2022/07/09 08:19:59;;;;;;;2.43;1.20;;;22.40;99.90;;;;;;5029466;28;21194;-84
2022/07/09 08:22:26;;;;;;;1.33;1.23;;;22.80;99.90;;;;;;5031927;28;20445;-85
2022/07/09 08:24:53;;;;;;;1.50;1.40;;;23.00;99.90;;;;;;5029256;28;20452;-84
2022/07/09 08:27:19;;;;;;;1.40;1.30;;;23.00;99.90;;;;;;5028082;28;20958;-83
2022/07/09 08:29:48;;;;;;;4.73;1.00;;;23.00;99.90;;;;;;5026475;28;20450;-81
2022/07/09 08:32:15;;;;;;;1.57;1.47;;;22.90;99.90;;;;;;5019416;28;20462;-81
2022/07/09 08:34:42;;;;;;;1.70;1.40;;;23.00;99.90;;;;;;5023812;28;20481;-83
2022/07/09 08:37:09;;;;;;;1.30;1.20;;;23.00;99.90;;;;;;5029300;28;20516;-83
2022/07/09 08:39:35;;;;;;;1.40;1.27;;;23.00;99.90;;;;;;5029792;28;20494;-83
2022/07/09 08:42:04;;;;;;;2.27;1.43;;;23.10;99.90;;;;;;5016404;28;20745;-84
2022/07/09 08:44:32;;;;;;;1.10;1.00;;;23.20;99.90;;;;;;5020561;28;20451;-83
2022/07/09 08:47:01;;;;;;;2.60;1.63;;;23.20;99.90;;;;;;5024922;28;20470;-83
2022/07/09 08:49:29;;;;;;;2.60;1.20;;;23.30;99.90;;;;;;5029881;28;20450;-82
2022/07/09 08:51:56;;;;;;;2.37;1.90;;;23.20;99.90;;;;;;5033097;28;20470;-85
2022/07/09 08:54:24;;;;;;;1.33;1.10;;;23.10;99.90;;;;;;5028919;28;20497;-82
2022/07/09 08:56:52;;;;;;;2.20;1.27;;;22.90;99.90;;;;;;5025316;28;20810;-82
2022/07/09 08:59:19;;;;;;;1.40;1.23;;;22.70;99.90;;;;;;5030072;28;20486;-83
2022/07/09 09:01:45;;;;;;;1.10;0.90;;;22.70;99.90;;;;;;5028041;28;20466;-83
2022/07/09 09:04:14;;;;;;;1.27;1.17;;;22.80;99.90;;;;;;5026630;28;20455;-86
2022/07/09 09:06:41;;;;;;;1.53;1.30;;;23.10;99.90;;;;;;5030916;28;20456;-86
2022/07/09 09:09:10;;;;;;;1.60;1.10;;;23.40;99.90;;;;;;5026464;28;20987;-86
2022/07/09 09:11:37;;;;;;;1.67;1.17;;;23.50;99.90;;;;;;5025202;28;20455;-85
2022/07/09 09:14:04;;;;;;;1.30;1.20;;;23.40;99.90;;;;;;5026750;28;20462;-85
2022/07/09 09:16:31;;;;;;;1.50;1.27;;;23.30;99.90;;;;;;5032514;28;20458;-84
2022/07/09 09:18:59;;;;;;;1.30;1.20;;;23.20;99.90;;;;;;5022720;28;20481;-84
2022/07/09 09:21:27;;;;;;;3.03;1.30;;;23.10;99.90;;;;;;5019934;28;20470;-85
2022/07/09 09:23:57;;;;;;;1.50;1.30;;;23.10;99.90;;;;;;5024964;28;20838;-83
2022/07/09 09:26:25;;;;;;;1.53;1.10;;;23.00;99.90;;;;;;5014721;28;20443;-85
2022/07/09 09:28:53;;;;;;;2.20;1.20;;;23.00;99.90;;;;;;5025852;28;20455;-84
2022/07/09 09:31:21;;;;;;;1.30;1.20;;;22.90;99.90;;;;;;5029549;28;20465;-84
2022/07/09 09:33:48;;;;;;;1.80;1.23;;;22.90;99.90;;;;;;5032928;28;20504;-83
2022/07/09 09:36:28;;;;;;;1.83;1.10;;;22.80;99.90;;;;;;5027203;28;20458;-85
2022/07/09 09:38:55;;;;;;;1.33;1.07;;;22.70;99.90;;;;;;5030826;28;20486;-85
2022/07/09 09:41:23;;;;;;;1.20;1.00;;;22.70;99.90;;;;;;5027647;28;20933;-84
2022/07/09 09:43:53;;;;;;;2.10;1.10;;;22.60;99.90;;;;;;5032145;28;20534;-85
2022/07/09 09:46:20;;;;;;;2.10;1.10;;;22.60;99.90;;;;;;5025796;28;20454;-85
2022/07/09 09:48:49;;;;;;;1.67;1.17;;;22.60;99.90;;;;;;5030197;28;20458;-84
2022/07/09 09:51:20;;;;;;;1.40;1.07;;;22.60;99.90;;;;;;5029449;28;20476;-84
2022/07/09 09:53:50;;;;;;;1.73;1.00;;;22.60;99.90;;;;;;5029648;28;20470;-85
2022/07/09 09:56:17;;;;;;;1.60;1.10;;;22.50;99.90;;;;;;5029916;28;20551;-84
2022/07/09 09:58:45;;;;;;;1.23;1.00;;;22.50;99.90;;;;;;5025060;28;20490;-85
2022/07/09 10:01:12;;;;;;;1.63;1.13;;;22.50;99.90;;;;;;5024367;28;20467;-84
2022/07/09 10:03:40;;;;;;;1.30;0.80;;;22.40;99.90;;;;;;5028981;28;20459;-84
2022/07/09 10:06:07;;;;;;;1.33;1.00;;;22.50;99.90;;;;;;5025708;28;20474;-83
2022/07/09 10:08:35;;;;;;;1.07;0.97;;;22.50;99.90;;;;;;5025416;28;20458;-85
2022/07/09 10:11:04;;;;;;;1.10;1.00;;;22.50;99.90;;;;;;5022452;28;20970;-84
2022/07/09 10:13:31;;;;;;;1.10;0.97;;;22.40;99.90;;;;;;5028323;28;20465;-84
2022/07/09 10:15:57;;;;;;;1.37;1.17;;;22.50;99.90;;;;;;5030507;28;20462;-84
2022/07/09 10:18:24;;;;;;;1.00;0.83;;;22.40;99.90;;;;;;5022743;28;20823;-85
2022/07/09 10:20:56;;;;;;;1.27;1.00;;;22.40;99.90;;;;;;5024955;28;20489;-85
2022/07/09 10:23:23;;;;;;;1.30;0.90;;;22.50;99.90;;;;;;5029602;28;20845;-85
2022/07/09 10:25:55;;;;;;;1.13;0.80;;;22.50;99.90;;;;;;5023991;28;20483;-85
2022/07/09 10:28:24;;;;;;;3.67;1.17;;;22.50;99.90;;;;;;5013421;28;20455;-85
2022/07/09 10:30:53;;;;;;;1.30;0.90;;;22.50;99.90;;;;;;5022420;28;20549;-83
2022/07/09 10:33:24;;;;;;;2.30;1.13;;;22.40;99.90;;;;;;5029631;28;20878;-83
2022/07/09 10:35:52;;;;;;;1.23;1.13;;;22.50;99.90;;;;;;5029832;28;20454;-83
2022/07/09 10:38:21;;;;;;;1.30;1.20;;;22.40;99.90;;;;;;5023769;28;20524;-85
2022/07/09 10:40:56;;;;;;;3.00;1.10;;;22.50;99.90;;;;;;5026667;28;20473;-84
2022/07/09 10:43:39;;;;;;;1.30;1.10;;;22.50;99.90;;;;;;5030630;28;20829;-85
2022/07/09 10:46:11;;;;;;;1.37;1.27;;;22.50;99.90;;;;;;5023534;28;20504;-84
2022/07/09 10:48:37;;;;;;;2.03;0.80;;;22.50;99.90;;;;;;5023654;28;20502;-84
2022/07/09 10:51:05;;;;;;;1.10;0.90;;;22.50;99.90;;;;;;5029127;28;20471;-84
2022/07/09 10:53:32;;;;;;;1.27;1.17;;;22.50;99.90;;;;;;5032322;28;20457;-84
2022/07/09 10:56:00;;;;;;;1.43;0.90;;;22.60;99.90;;;;;;5023858;28;20450;-83
2022/07/09 10:58:29;;;;;;;1.83;1.73;;;22.60;99.90;;;;;;5026735;28;20450;-82
2022/07/09 11:00:56;;;;;;;1.67;0.90;;;22.50;99.90;;;;;;5027051;28;20996;-83
2022/07/09 11:03:26;;;;;;;1.77;1.07;;;22.60;99.90;;;;;;5024782;28;20917;-85
2022/07/09 11:05:53;;;;;;;1.17;1.00;;;22.60;99.90;;;;;;5027913;28;20876;-82
2022/07/09 11:08:19;;;;;;;1.63;0.80;;;22.60;99.90;;;;;;5021836;28;20976;-84
2022/07/09 11:10:46;;;;;;;1.10;1.00;;;22.60;99.90;;;;;;5023414;28;20491;-83
2022/07/09 11:13:13;;;;;;;1.23;1.13;;;22.60;99.90;;;;;;5022728;28;20458;-84
2022/07/09 11:15:41;;;;;;;1.67;1.10;;;22.60;99.90;;;;;;5018231;28;20466;-84
2022/07/09 11:18:10;;;;;;;1.20;1.00;;;22.60;99.90;;;;;;5019743;28;20454;-83
2022/07/09 11:20:39;;;;;;;1.00;0.80;;;22.60;99.90;;;;;;5022218;28;20493;-84
2022/07/09 11:23:06;;;;;;;1.30;1.00;;;22.60;99.90;;;;;;5019183;28;20467;-84
2022/07/09 11:25:33;;;;;;;0.90;0.70;;;22.60;99.90;;;;;;5023236;28;20462;-83
2022/07/09 11:28:01;;;;;;;1.53;1.10;;;22.60;99.90;;;;;;5020261;28;20454;-84
2022/07/09 11:30:29;;;;;;;1.17;1.00;;;22.70;99.90;;;;;;5018786;28;20466;-84
2022/07/09 11:32:57;;;;;;;1.40;1.00;;;22.70;99.90;;;;;;5023911;28;20881;-84
2022/07/09 11:35:27;;;;;;;1.10;1.00;;;22.70;99.90;;;;;;5018795;28;20479;-84
2022/07/09 11:37:54;;;;;;;1.20;1.10;;;22.80;99.90;;;;;;5022508;28;20467;-83
2022/07/09 11:40:21;;;;;;;1.20;0.80;;;22.80;99.90;;;;;;5019651;28;20479;-84
2022/07/09 11:42:49;;;;;;;1.13;0.90;;;22.90;99.90;;;;;;5012649;28;20458;-85
2022/07/09 11:45:16;;;;;;;1.13;0.93;;;22.80;99.90;;;;;;5011385;28;20510;-83
2022/07/09 11:47:45;;;;;;;1.00;0.83;;;22.90;99.90;;;;;;5017314;28;21267;-86
2022/07/09 11:50:15;;;;;;;1.20;1.10;;;23.00;99.90;;;;;;5025755;28;20480;-84
2022/07/09 11:52:45;;;;;;;1.10;0.80;;;23.00;99.90;;;;;;5026528;28;20438;-82
2022/07/09 11:55:15;;;;;;;1.97;1.00;;;23.00;99.90;;;;;;5015773;28;20557;-84
2022/07/09 11:57:52;;;;;;;1.10;1.00;;;23.00;99.90;;;;;;5022213;28;21307;-83
2022/07/09 12:00:22;;;;;;;1.30;0.90;;;22.90;99.90;;;;;;5015235;28;20808;-84
2022/07/09 12:02:49;;;;;;;1.10;0.90;;;22.90;99.90;;;;;;5016135;28;20997;-85
2022/07/09 12:05:26;;;;;;;1.20;1.07;;;22.90;99.90;;;;;;5018502;28;20901;-84
2022/07/09 12:07:53;;;;;;;1.90;1.33;;;22.90;99.90;;;;;;5020102;28;21000;-84
2022/07/09 12:10:26;;;;;;;1.37;1.00;;;22.80;99.90;;;;;;5013566;28;20462;-84
2022/07/09 12:12:53;;;;;;;1.00;0.87;;;22.70;99.90;;;;;;5021895;28;20849;-83
2022/07/09 12:15:20;;;;;;;1.50;1.40;;;22.70;99.90;;;;;;5018370;28;21059;-84
2022/07/09 12:17:52;;;;;;;1.40;1.03;;;22.60;99.90;;;;;;5024192;28;21004;-83
2022/07/09 12:20:20;;;;;;;2.03;1.23;;;22.60;99.90;;;;;;5013587;28;20479;-84
2022/07/09 12:22:47;;;;;;;1.43;1.00;;;22.60;99.90;;;;;;5024416;28;20474;-85
2022/07/09 12:25:14;;;;;;;1.33;1.00;;;22.50;99.90;;;;;;5027659;28;20937;-83
2022/07/09 12:27:41;;;;;;;1.20;1.10;;;22.50;99.90;;;;;;5025257;28;20545;-83
2022/07/09 12:30:08;;;;;;;1.33;1.20;;;22.50;99.90;;;;;;5011767;28;20477;-84
2022/07/09 12:32:36;;;;;;;1.93;0.90;;;22.60;99.90;;;;;;5018981;28;20469;-83
2022/07/09 12:35:03;;;;;;;1.00;0.80;;;22.50;99.90;;;;;;5014321;28;20461;-83
2022/07/09 12:37:31;;;;;;;1.40;1.00;;;22.60;99.90;;;;;;5026734;28;20450;-84
2022/07/09 12:39:57;;;;;;;1.83;1.00;;;22.60;99.90;;;;;;5018753;28;21008;-84
2022/07/09 12:42:24;;;;;;;1.10;1.00;;;22.60;99.90;;;;;;5017697;28;20471;-83
2022/07/09 12:44:51;;;;;;;1.20;1.10;;;22.60;99.90;;;;;;5016871;28;20963;-85
2022/07/09 12:47:18;;;;;;;2.17;1.20;;;22.60;99.90;;;;;;5022277;28;20446;-83
2022/07/09 12:49:44;;;;;;;2.13;1.10;;;22.60;99.90;;;;;;5014708;28;20465;-83
2022/07/09 12:52:11;;;;;;;1.20;1.00;;;22.60;99.90;;;;;;5021239;28;20473;-84